Аэропорт: Толмачёво. Новосибирск

ICAO: UNNT

METAR:
2020-10-19 22:30:00
UNNT 192230Z 18008MPS 9999 BKN060CB 05/M03 Q1016 R25/090070 R34/090070 NOSIG RMK QFE752/1003
METAR:
2020-10-19 20:00:00
TAF UNNT 192000Z 1921/2021 19005G13MPS 9999 BKN040CB TEMPO 1921/2005 20010G16MPS 3000 -SHRASN BKN016CB BECMG 2005/2006 24005G13MPS BECMG 2012/2015 19003G08MPS